createdAt,value
2022-10-18T00:00:00.279Z,2.8
2022-10-18T00:05:00.233Z,2.8
2022-10-18T00:10:00.410Z,1.2
2022-10-18T00:15:00.268Z,1.8
2022-10-18T00:20:00.255Z,1.2
2022-10-18T00:25:00.264Z,0.2
2022-10-18T00:30:00.297Z,0.1
2022-10-18T00:35:00.226Z,0.5
2022-10-18T00:40:00.447Z,0.2
2022-10-18T00:45:00.281Z,3.0
2022-10-18T00:50:00.261Z,1.9
2022-10-18T00:55:00.255Z,2.5
2022-10-18T01:00:00.363Z,3.2
2022-10-18T01:05:00.253Z,2.2
2022-10-18T01:10:00.285Z,1.2
2022-10-18T01:15:00.273Z,1.3
2022-10-18T01:20:00.295Z,1.7
2022-10-18T01:25:00.313Z,2.3
2022-10-18T01:30:00.287Z,1.2
2022-10-18T01:35:00.227Z,1.5
2022-10-18T01:40:00.258Z,2.0
2022-10-18T01:45:00.295Z,0.6
2022-10-18T01:50:00.335Z,0.0
2022-10-18T01:55:00.270Z,0.9
2022-10-18T02:00:00.303Z,0.8
2022-10-18T02:05:00.282Z,2.8
2022-10-18T02:10:00.486Z,3.2
2022-10-18T02:15:00.285Z,0.7
2022-10-18T02:20:00.421Z,0.8
2022-10-18T02:25:00.284Z,1.3
2022-10-18T02:30:00.378Z,1.4
2022-10-18T02:35:00.246Z,0.3
2022-10-18T02:40:00.256Z,2.7
2022-10-18T02:45:00.435Z,0.6
2022-10-18T02:50:00.274Z,0.8
2022-10-18T02:55:00.372Z,1.8
2022-10-18T03:00:00.265Z,2.1
2022-10-18T03:05:00.254Z,2.3
2022-10-18T03:10:00.286Z,3.5
2022-10-18T03:15:00.238Z,2.4
2022-10-18T03:20:00.327Z,1.3
2022-10-18T03:25:00.319Z,1.0
2022-10-18T03:30:00.298Z,0.3
2022-10-18T03:35:00.252Z,0.0
2022-10-18T03:40:00.291Z,1.5
2022-10-18T03:45:00.253Z,0.1
2022-10-18T03:50:00.278Z,0.6
2022-10-18T03:55:00.280Z,1.5
2022-10-18T04:00:00.312Z,0.2
2022-10-18T04:05:00.267Z,1.1
2022-10-18T04:10:00.288Z,0.3
2022-10-18T04:15:00.252Z,0.2
2022-10-18T04:20:00.290Z,0.1
2022-10-18T04:25:00.275Z,0.1
2022-10-18T04:30:00.296Z,0.0
2022-10-18T04:35:00.252Z,0.0
2022-10-18T04:40:00.270Z,0.2
2022-10-18T04:45:00.270Z,0.0
2022-10-18T04:50:00.271Z,0.0
2022-10-18T04:55:00.295Z,0.0
2022-10-18T05:00:00.327Z,0.0
2022-10-18T05:05:00.247Z,0.0
2022-10-18T05:10:00.324Z,0.0
2022-10-18T05:15:00.267Z,0.0
2022-10-18T05:20:00.526Z,0.0
2022-10-18T05:25:00.284Z,0.0
2022-10-18T05:30:05.471Z,0.0
2022-10-18T05:35:00.264Z,0.6
2022-10-18T05:40:00.287Z,0.0
2022-10-18T05:45:00.282Z,0.0
2022-10-18T05:50:00.263Z,0.0
2022-10-18T05:55:00.265Z,0.3
2022-10-18T06:00:00.286Z,0.0
2022-10-18T06:05:00.218Z,0.1
2022-10-18T06:10:00.271Z,0.0
2022-10-18T06:15:00.277Z,0.0
2022-10-18T06:20:00.255Z,0.0
2022-10-18T06:25:00.250Z,0.0
2022-10-18T06:30:00.282Z,0.0
2022-10-18T06:35:00.254Z,0.3
2022-10-18T06:40:00.294Z,0.0
2022-10-18T06:45:00.277Z,0.1
2022-10-18T06:50:00.261Z,0.1
2022-10-18T06:55:00.259Z,0.1
2022-10-18T07:00:00.275Z,0.4
2022-10-18T07:05:00.241Z,0.7
2022-10-18T07:10:00.285Z,0.0
2022-10-18T07:15:00.246Z,0.0
2022-10-18T07:20:00.280Z,0.0
2022-10-18T07:25:00.291Z,0.6
2022-10-18T07:30:00.262Z,0.5
2022-10-18T07:35:00.404Z,1.2
2022-10-18T07:40:00.282Z,0.7
2022-10-18T07:45:00.266Z,0.1
2022-10-18T07:50:00.258Z,1.2
2022-10-18T07:55:00.286Z,0.2
2022-10-18T08:00:00.315Z,0.0
2022-10-18T08:05:00.233Z,0.0
2022-10-18T08:10:00.263Z,0.1
2022-10-18T08:15:00.282Z,0.4
2022-10-18T08:20:12.532Z,0.4
2022-10-18T08:25:00.263Z,1.3
2022-10-18T08:30:00.479Z,1.4
2022-10-18T08:35:04.465Z,0.1
2022-10-18T08:40:00.297Z,0.6
2022-10-18T08:45:12.832Z,0.3
2022-10-18T08:50:00.268Z,0.7
2022-10-18T08:55:00.269Z,1.6
2022-10-18T09:00:00.289Z,0.3
2022-10-18T09:05:00.252Z,0.2
2022-10-18T09:10:00.282Z,0.6
2022-10-18T09:15:00.269Z,0.2
2022-10-18T09:25:00.265Z,0.9
2022-10-18T09:30:00.280Z,0.1
2022-10-18T09:35:00.258Z,0.0
2022-10-18T09:40:00.295Z,0.2
2022-10-18T09:45:00.270Z,0.1
2022-10-18T09:50:00.302Z,0.1
2022-10-18T09:55:00.236Z,0.1
2022-10-18T10:00:00.287Z,0.0
2022-10-18T10:05:02.751Z,0.0
2022-10-18T10:10:00.296Z,0.0
2022-10-18T10:15:00.272Z,0.2
2022-10-18T10:20:00.313Z,0.1
2022-10-18T10:25:00.265Z,0.0
2022-10-18T10:30:06.957Z,0.0
2022-10-18T10:35:00.248Z,0.0
2022-10-18T10:40:18.621Z,0.0
2022-10-18T10:45:00.274Z,0.0
2022-10-18T10:50:00.299Z,0.0
2022-10-18T10:55:33.906Z,0.8
2022-10-18T11:00:00.362Z,0.1
2022-10-18T11:05:00.346Z,0.3
2022-10-18T11:10:00.294Z,0.5
2022-10-18T11:15:00.278Z,1.7
2022-10-18T11:20:00.275Z,0.4
2022-10-18T11:25:00.257Z,0.5
2022-10-18T11:30:00.289Z,0.1
2022-10-18T11:35:00.288Z,1.7
2022-10-18T11:40:00.266Z,0.8
2022-10-18T11:45:00.274Z,0.1
2022-10-18T11:50:00.276Z,1.2
2022-10-18T11:55:00.264Z,0.7
2022-10-18T12:00:00.296Z,1.7
2022-10-18T12:05:24.676Z,1.1
2022-10-18T12:10:00.283Z,1.8
2022-10-18T12:15:00.282Z,2.1
2022-10-18T12:20:00.393Z,1.7
2022-10-18T12:25:00.258Z,3.0
2022-10-18T12:30:00.298Z,2.5
2022-10-18T12:35:00.267Z,3.2
2022-10-18T12:40:12.321Z,3.0
2022-10-18T12:45:00.397Z,3.2
2022-10-18T12:50:00.262Z,1.4
2022-10-18T12:55:00.253Z,2.8
2022-10-18T13:00:00.281Z,3.2
2022-10-18T13:05:00.927Z,4.6
2022-10-18T13:10:00.271Z,4.8
2022-10-18T13:15:24.597Z,2.6
2022-10-18T13:20:24.891Z,3.2
2022-10-18T13:25:00.274Z,2.5
2022-10-18T13:30:00.261Z,3.6
2022-10-18T13:35:00.268Z,2.5
2022-10-18T13:40:00.308Z,2.5
2022-10-18T13:45:00.280Z,3.9
2022-10-18T13:50:00.288Z,4.5
2022-10-18T13:55:00.270Z,3.2
2022-10-18T14:00:00.329Z,4.2
2022-10-18T14:05:24.429Z,4.3
2022-10-18T14:10:04.474Z,6.9
2022-10-18T14:15:00.278Z,5.9
2022-10-18T14:20:00.260Z,6.7
2022-10-18T14:25:00.283Z,6.3
2022-10-18T14:30:00.266Z,4.6
2022-10-18T14:35:30.938Z,4.2
2022-10-18T14:40:00.277Z,5.1
2022-10-18T14:45:00.440Z,1.7
2022-10-18T14:50:00.303Z,5.4
2022-10-18T14:55:00.301Z,3.6
2022-10-18T15:00:00.268Z,3.0
2022-10-18T15:05:00.271Z,1.6
2022-10-18T15:10:00.477Z,1.5
2022-10-18T15:15:00.244Z,2.4
2022-10-18T15:20:06.046Z,2.9
2022-10-18T15:25:00.250Z,0.9
2022-10-18T15:30:00.413Z,1.8
2022-10-18T15:35:00.244Z,2.0
2022-10-18T15:40:00.408Z,1.5
2022-10-18T15:45:00.270Z,1.5
2022-10-18T15:50:00.518Z,0.4
2022-10-18T15:55:00.251Z,0.6
2022-10-18T16:00:00.380Z,0.6
2022-10-18T16:05:00.266Z,0.3
2022-10-18T16:10:00.354Z,0.2
2022-10-18T16:15:00.268Z,0.0
2022-10-18T16:20:00.264Z,0.0
2022-10-18T16:25:00.253Z,0.0
2022-10-18T16:30:00.300Z,0.0
2022-10-18T16:35:00.264Z,0.0
2022-10-18T16:40:00.319Z,0.0
2022-10-18T16:45:00.315Z,0.0
2022-10-18T16:50:06.878Z,0.0
2022-10-18T16:55:00.276Z,0.1
2022-10-18T17:00:00.324Z,0.0
2022-10-18T17:05:00.255Z,0.0
2022-10-18T17:10:00.255Z,0.0
2022-10-18T17:15:00.276Z,0.0
2022-10-18T17:20:00.316Z,0.0
2022-10-18T17:25:00.226Z,0.0
2022-10-18T17:30:00.276Z,0.0
2022-10-18T17:35:00.354Z,0.0
2022-10-18T17:40:00.260Z,0.0
2022-10-18T17:45:00.288Z,0.0
2022-10-18T17:50:00.252Z,0.0
2022-10-18T17:55:00.237Z,0.0
2022-10-18T18:00:00.274Z,0.0
2022-10-18T18:05:00.227Z,0.0
2022-10-18T18:10:00.255Z,0.0
2022-10-18T18:15:00.286Z,0.0
2022-10-18T18:20:00.369Z,0.0
2022-10-18T18:25:00.238Z,0.0
2022-10-18T18:30:00.328Z,0.2
2022-10-18T18:35:00.232Z,0.1
2022-10-18T18:40:00.297Z,2.3
2022-10-18T18:45:00.286Z,2.8
2022-10-18T18:50:00.279Z,1.2
2022-10-18T18:55:00.289Z,1.2
2022-10-18T19:00:00.274Z,0.4
2022-10-18T19:05:00.260Z,2.0
2022-10-18T19:10:00.266Z,0.5
2022-10-18T19:15:00.252Z,0.1
2022-10-18T19:20:00.285Z,0.2
2022-10-18T19:25:00.284Z,1.3
2022-10-18T19:30:00.301Z,0.6
2022-10-18T19:35:00.237Z,0.2
2022-10-18T19:40:00.299Z,0.0
2022-10-18T19:45:00.271Z,0.0
2022-10-18T19:50:00.300Z,0.0
2022-10-18T19:55:00.310Z,1.0
2022-10-18T20:00:02.021Z,1.4
2022-10-18T20:05:00.245Z,1.2
2022-10-18T20:10:00.294Z,0.3
2022-10-18T20:15:00.292Z,0.2
2022-10-18T20:20:00.330Z,1.2
2022-10-18T20:25:00.261Z,1.8
2022-10-18T20:30:00.277Z,0.3
2022-10-18T20:35:00.449Z,1.5
2022-10-18T20:40:00.330Z,1.9
2022-10-18T20:45:00.431Z,1.1
2022-10-18T20:50:00.334Z,2.0
2022-10-18T20:55:00.380Z,0.7
2022-10-18T21:00:00.327Z,1.0
2022-10-18T21:05:00.291Z,0.3
2022-10-18T21:10:00.281Z,0.6
2022-10-18T21:15:00.315Z,2.6
2022-10-18T21:20:00.341Z,1.4
2022-10-18T21:25:00.238Z,1.7
2022-10-18T21:30:00.416Z,1.3
2022-10-18T21:35:00.389Z,1.0
2022-10-18T21:40:00.268Z,0.5
2022-10-18T21:45:00.273Z,1.8
2022-10-18T21:50:00.268Z,2.7
2022-10-18T21:55:00.407Z,2.5
2022-10-18T22:00:00.320Z,1.5
2022-10-18T22:05:00.264Z,2.5
2022-10-18T22:10:00.339Z,2.6
2022-10-18T22:15:00.272Z,2.5
2022-10-18T22:20:00.272Z,1.5
2022-10-18T22:25:00.270Z,0.2
2022-10-18T22:30:00.295Z,0.4
2022-10-18T22:35:00.224Z,2.1
2022-10-18T22:40:00.266Z,3.6
2022-10-18T22:45:00.276Z,3.4
2022-10-18T22:50:00.258Z,4.8
2022-10-18T22:55:00.285Z,3.7
2022-10-18T23:00:00.351Z,4.0
2022-10-18T23:05:00.260Z,3.7
2022-10-18T23:10:00.256Z,3.4
2022-10-18T23:15:00.290Z,3.1
2022-10-18T23:20:00.283Z,3.9
2022-10-18T23:25:00.232Z,2.6
2022-10-18T23:30:00.306Z,3.4
2022-10-18T23:35:00.244Z,2.5
2022-10-18T23:40:00.315Z,1.7
2022-10-18T23:45:00.241Z,0.4
2022-10-18T23:50:00.292Z,0.5
2022-10-18T23:55:00.259Z,0.9
